Pagrindinis puslapis
METAR-TAF:

METAR-TAF

Oro uostai :

Brownsville, Teksasas, Jungtinės Amerikos Valstijos

platuma: 25-54-51N, ilguma: 097-25-23W, Aukštis: 7 m

Dabartinis oras

Ataskaita buvo paskelbta 25 minutes, ne 06:53 UTC
Vėjas 3 kt iš Šiaurės/Šiaurės Rytų
Temperatūra 24°C
Drėgmė 89%
Slėgis 1013 hPa
Matomumas: 16.1 km
Giedras dangus

METAR: KBRO 270653Z AUTO 03003KT 10SM CLR 24/22 A2991 RMK AO2 SLP128 T02390217

Laikas: 02:18 (07:18 UTC)

Prognozė

Ataskaita buvo paskelbta 1 valandą ir 50 minutes, ne 05:28 UTC
Prognozė galioja nuo 27 metu 06 UTC su 28 metu 06 UTC
Vėjas 2 kt nuo kintamojo kryptimis
Matomumas: 10 km
Mažai debesys ne aukštis 8000 ft
Nuo 27 metu 1400 UTC
Vėjas 8 kt iš Pietryčių
Matomumas: 10 km
Mažai debesys ne aukštis 25000 ft
Nuo 27 metu 1900 UTC
Vėjas 11 kt iš Pietryčių
Matomumas: 10 km
Giedras dangus
Nuo 28 metu 0100 UTC
Vėjas 7 kt iš Pietryčių
Matomumas: 10 km
Mažai debesys ne aukštis 25000 ft

TAF: KBRO 270528Z 2706/2806 VRB02KT P6SM FEW080 FM271400 14008KT P6SM FEW250 FM271900 13011KT P6SM SKC FM280100 14007KT P6SM FEW250

Orai ataskaitas ir orų prognozės (METAR, TAF).

turimą stotys yra geltonos ir raudonos taškus žemėlapyje.

Perkelti pele per norėdami pamatyti stoties vardą.

Tada spustelėkite, norėdami matyti oro stebėjimo ir prognozės.

Norėdami pakeisti žemėlapį: spustelėkite ant žalios mygtukų su juodo kryžiaus žemyn,; žalią mygtuką su brūkšneliu, jei norite nutolinti; arba žalių rodyklių gretimoms žemėlapius.


METAR-TAF: